sensor_id;sensor_type;location;lat;lon;timestamp;P1;durP1;ratioP1;P2;durP2;ratioP2
45039;SDS011;30778;53.574;7.770;2024-03-22T00:01:39;33.90;;;18.77;;
45039;SDS011;30778;53.574;7.770;2024-03-22T00:04:05;32.95;;;17.15;;
45039;SDS011;30778;53.574;7.770;2024-03-22T00:06:33;33.65;;;18.05;;
45039;SDS011;30778;53.574;7.770;2024-03-22T00:08:59;36.83;;;17.95;;
45039;SDS011;30778;53.574;7.770;2024-03-22T00:11:24;30.35;;;16.92;;
45039;SDS011;30778;53.574;7.770;2024-03-22T00:13:50;34.25;;;18.25;;
45039;SDS011;30778;53.574;7.770;2024-03-22T00:16:16;32.83;;;18.35;;
45039;SDS011;30778;53.574;7.770;2024-03-22T00:18:42;34.80;;;17.58;;
45039;SDS011;30778;53.574;7.770;2024-03-22T00:21:07;32.13;;;17.38;;
45039;SDS011;30778;53.574;7.770;2024-03-22T00:23:32;31.05;;;16.05;;
45039;SDS011;30778;53.574;7.770;2024-03-22T00:25:59;33.40;;;18.00;;
45039;SDS011;30778;53.574;7.770;2024-03-22T00:28:24;35.38;;;17.45;;
45039;SDS011;30778;53.574;7.770;2024-03-22T00:30:50;36.00;;;17.48;;
45039;SDS011;30778;53.574;7.770;2024-03-22T00:33:15;28.58;;;15.98;;
45039;SDS011;30778;53.574;7.770;2024-03-22T00:35:41;33.78;;;17.92;;
45039;SDS011;30778;53.574;7.770;2024-03-22T00:38:06;30.60;;;17.15;;
45039;SDS011;30778;53.574;7.770;2024-03-22T00:40:32;32.28;;;16.95;;
45039;SDS011;30778;53.574;7.770;2024-03-22T00:42:58;32.67;;;16.10;;
45039;SDS011;30778;53.574;7.770;2024-03-22T00:45:24;29.45;;;16.65;;
45039;SDS011;30778;53.574;7.770;2024-03-22T00:47:49;26.48;;;16.38;;
45039;SDS011;30778;53.574;7.770;2024-03-22T00:50:15;31.30;;;16.20;;
45039;SDS011;30778;53.574;7.770;2024-03-22T00:52:40;31.35;;;15.85;;
45039;SDS011;30778;53.574;7.770;2024-03-22T00:55:07;28.02;;;15.85;;
45039;SDS011;30778;53.574;7.770;2024-03-22T00:57:32;31.25;;;17.05;;
45039;SDS011;30778;53.574;7.770;2024-03-22T00:59:58;29.90;;;16.48;;
45039;SDS011;30778;53.574;7.770;2024-03-22T01:02:23;32.95;;;17.50;;
45039;SDS011;30778;53.574;7.770;2024-03-22T01:04:49;34.53;;;17.55;;
45039;SDS011;30778;53.574;7.770;2024-03-22T01:07:15;26.58;;;15.95;;
45039;SDS011;30778;53.574;7.770;2024-03-22T01:09:40;34.90;;;18.63;;
45039;SDS011;30778;53.574;7.770;2024-03-22T01:12:09;32.05;;;17.17;;
45039;SDS011;30778;53.574;7.770;2024-03-22T01:14:35;27.95;;;16.73;;
45039;SDS011;30778;53.574;7.770;2024-03-22T01:17:01;30.52;;;16.60;;
45039;SDS011;30778;53.574;7.770;2024-03-22T01:19:26;28.55;;;15.73;;
45039;SDS011;30778;53.574;7.770;2024-03-22T01:21:51;32.35;;;17.05;;
45039;SDS011;30778;53.574;7.770;2024-03-22T01:24:17;32.83;;;17.05;;
45039;SDS011;30778;53.574;7.770;2024-03-22T01:26:42;33.28;;;18.42;;
45039;SDS011;30778;53.574;7.770;2024-03-22T01:29:08;33.50;;;17.30;;
45039;SDS011;30778;53.574;7.770;2024-03-22T01:31:34;34.85;;;19.00;;
45039;SDS011;30778;53.574;7.770;2024-03-22T01:33:59;36.13;;;17.58;;
45039;SDS011;30778;53.574;7.770;2024-03-22T01:36:25;34.28;;;18.60;;
45039;SDS011;30778;53.574;7.770;2024-03-22T01:38:50;37.35;;;17.15;;
45039;SDS011;30778;53.574;7.770;2024-03-22T01:41:15;32.92;;;16.50;;
45039;SDS011;30778;53.574;7.770;2024-03-22T01:43:41;30.98;;;16.98;;
45039;SDS011;30778;53.574;7.770;2024-03-22T01:46:07;41.97;;;18.58;;
45039;SDS011;30778;53.574;7.770;2024-03-22T01:48:33;38.45;;;19.38;;
45039;SDS011;30778;53.574;7.770;2024-03-22T01:50:59;39.47;;;18.88;;
45039;SDS011;30778;53.574;7.770;2024-03-22T01:53:25;41.88;;;20.90;;
45039;SDS011;30778;53.574;7.770;2024-03-22T01:55:51;33.22;;;18.83;;
45039;SDS011;30778;53.574;7.770;2024-03-22T01:58:17;34.45;;;18.27;;
45039;SDS011;30778;53.574;7.770;2024-03-22T02:00:43;34.55;;;18.73;;
45039;SDS011;30778;53.574;7.770;2024-03-22T02:03:09;37.25;;;17.92;;
45039;SDS011;30778;53.574;7.770;2024-03-22T02:05:34;37.45;;;19.77;;
45039;SDS011;30778;53.574;7.770;2024-03-22T02:08:00;36.03;;;18.50;;
45039;SDS011;30778;53.574;7.770;2024-03-22T02:10:25;38.22;;;20.17;;
45039;SDS011;30778;53.574;7.770;2024-03-22T02:12:51;37.58;;;18.98;;
45039;SDS011;30778;53.574;7.770;2024-03-22T02:15:17;31.00;;;17.60;;
45039;SDS011;30778;53.574;7.770;2024-03-22T02:17:42;35.00;;;19.08;;
45039;SDS011;30778;53.574;7.770;2024-03-22T02:20:08;41.10;;;18.80;;
45039;SDS011;30778;53.574;7.770;2024-03-22T02:22:35;36.42;;;19.35;;
45039;SDS011;30778;53.574;7.770;2024-03-22T02:25:00;42.80;;;20.45;;
45039;SDS011;30778;53.574;7.770;2024-03-22T02:27:28;42.42;;;18.45;;
45039;SDS011;30778;53.574;7.770;2024-03-22T02:29:54;35.53;;;20.55;;
45039;SDS011;30778;53.574;7.770;2024-03-22T02:32:19;34.42;;;18.67;;
45039;SDS011;30778;53.574;7.770;2024-03-22T02:34:45;40.88;;;19.70;;
45039;SDS011;30778;53.574;7.770;2024-03-22T02:37:10;37.47;;;20.33;;
45039;SDS011;30778;53.574;7.770;2024-03-22T02:39:36;36.38;;;20.42;;
45039;SDS011;30778;53.574;7.770;2024-03-22T02:42:01;38.70;;;20.55;;
45039;SDS011;30778;53.574;7.770;2024-03-22T02:44:27;39.50;;;19.38;;
45039;SDS011;30778;53.574;7.770;2024-03-22T02:46:52;35.30;;;18.10;;
45039;SDS011;30778;53.574;7.770;2024-03-22T02:49:18;42.13;;;20.67;;
45039;SDS011;30778;53.574;7.770;2024-03-22T02:51:43;40.13;;;19.65;;
45039;SDS011;30778;53.574;7.770;2024-03-22T02:54:10;43.50;;;21.77;;
45039;SDS011;30778;53.574;7.770;2024-03-22T02:56:36;39.35;;;17.45;;
45039;SDS011;30778;53.574;7.770;2024-03-22T02:59:01;36.92;;;19.75;;
45039;SDS011;30778;53.574;7.770;2024-03-22T03:01:26;44.78;;;21.00;;
45039;SDS011;30778;53.574;7.770;2024-03-22T03:03:52;39.17;;;19.25;;
45039;SDS011;30778;53.574;7.770;2024-03-22T03:06:17;42.85;;;20.05;;
45039;SDS011;30778;53.574;7.770;2024-03-22T03:08:45;46.67;;;20.13;;
45039;SDS011;30778;53.574;7.770;2024-03-22T03:11:10;42.45;;;21.20;;
45039;SDS011;30778;53.574;7.770;2024-03-22T03:13:36;43.50;;;20.55;;
45039;SDS011;30778;53.574;7.770;2024-03-22T03:16:02;42.03;;;20.05;;
45039;SDS011;30778;53.574;7.770;2024-03-22T03:18:28;43.97;;;21.33;;
45039;SDS011;30778;53.574;7.770;2024-03-22T03:20:53;47.00;;;20.90;;
45039;SDS011;30778;53.574;7.770;2024-03-22T03:23:18;39.63;;;23.08;;
45039;SDS011;30778;53.574;7.770;2024-03-22T03:25:44;46.63;;;21.67;;
45039;SDS011;30778;53.574;7.770;2024-03-22T03:28:11;49.83;;;22.35;;
45039;SDS011;30778;53.574;7.770;2024-03-22T03:30:38;47.72;;;22.02;;
45039;SDS011;30778;53.574;7.770;2024-03-22T03:33:03;41.58;;;22.45;;
45039;SDS011;30778;53.574;7.770;2024-03-22T03:35:28;41.72;;;20.20;;
45039;SDS011;30778;53.574;7.770;2024-03-22T03:37:54;42.92;;;22.35;;
45039;SDS011;30778;53.574;7.770;2024-03-22T03:40:20;43.55;;;21.75;;
45039;SDS011;30778;53.574;7.770;2024-03-22T03:42:47;48.20;;;23.20;;
45039;SDS011;30778;53.574;7.770;2024-03-22T03:45:12;45.80;;;21.55;;
45039;SDS011;30778;53.574;7.770;2024-03-22T03:47:38;48.55;;;22.13;;
45039;SDS011;30778;53.574;7.770;2024-03-22T03:50:03;49.75;;;23.35;;
45039;SDS011;30778;53.574;7.770;2024-03-22T03:52:29;56.08;;;23.35;;
45039;SDS011;30778;53.574;7.770;2024-03-22T03:54:55;46.97;;;22.83;;
45039;SDS011;30778;53.574;7.770;2024-03-22T03:57:20;50.13;;;23.08;;
45039;SDS011;30778;53.574;7.770;2024-03-22T03:59:45;49.53;;;23.67;;
45039;SDS011;30778;53.574;7.770;2024-03-22T04:02:11;56.40;;;25.27;;
45039;SDS011;30778;53.574;7.770;2024-03-22T04:04:36;52.25;;;22.50;;
45039;SDS011;30778;53.574;7.770;2024-03-22T04:07:02;52.30;;;22.63;;
45039;SDS011;30778;53.574;7.770;2024-03-22T04:09:27;59.72;;;24.05;;
45039;SDS011;30778;53.574;7.770;2024-03-22T04:11:53;55.55;;;24.00;;
45039;SDS011;30778;53.574;7.770;2024-03-22T04:14:18;49.75;;;24.08;;
45039;SDS011;30778;53.574;7.770;2024-03-22T04:16:44;49.65;;;22.75;;
45039;SDS011;30778;53.574;7.770;2024-03-22T04:19:09;58.13;;;25.98;;
45039;SDS011;30778;53.574;7.770;2024-03-22T04:21:35;56.90;;;24.02;;
45039;SDS011;30778;53.574;7.770;2024-03-22T04:24:00;53.00;;;23.45;;
45039;SDS011;30778;53.574;7.770;2024-03-22T04:26:26;48.92;;;22.95;;
45039;SDS011;30778;53.574;7.770;2024-03-22T04:28:51;55.08;;;25.40;;
45039;SDS011;30778;53.574;7.770;2024-03-22T04:31:17;48.55;;;24.98;;
45039;SDS011;30778;53.574;7.770;2024-03-22T04:33:42;55.58;;;24.05;;
45039;SDS011;30778;53.574;7.770;2024-03-22T04:36:08;52.60;;;23.02;;
45039;SDS011;30778;53.574;7.770;2024-03-22T04:38:36;51.00;;;23.10;;
45039;SDS011;30778;53.574;7.770;2024-03-22T04:41:02;52.83;;;24.60;;
45039;SDS011;30778;53.574;7.770;2024-03-22T04:43:29;54.42;;;24.92;;
45039;SDS011;30778;53.574;7.770;2024-03-22T04:45:55;51.67;;;25.23;;
45039;SDS011;30778;53.574;7.770;2024-03-22T04:48:21;57.78;;;25.95;;
45039;SDS011;30778;53.574;7.770;2024-03-22T04:50:47;57.35;;;25.08;;
45039;SDS011;30778;53.574;7.770;2024-03-22T04:53:15;59.55;;;27.00;;
45039;SDS011;30778;53.574;7.770;2024-03-22T04:55:47;58.20;;;26.50;;
45039;SDS011;30778;53.574;7.770;2024-03-22T04:58:16;54.08;;;25.10;;
45039;SDS011;30778;53.574;7.770;2024-03-22T05:00:43;49.90;;;24.88;;
45039;SDS011;30778;53.574;7.770;2024-03-22T05:03:09;56.63;;;24.85;;
45039;SDS011;30778;53.574;7.770;2024-03-22T05:05:35;53.03;;;24.17;;
45039;SDS011;30778;53.574;7.770;2024-03-22T05:08:01;60.28;;;25.38;;
45039;SDS011;30778;53.574;7.770;2024-03-22T05:10:27;53.47;;;26.00;;
45039;SDS011;30778;53.574;7.770;2024-03-22T05:12:56;53.10;;;25.05;;
45039;SDS011;30778;53.574;7.770;2024-03-22T05:15:23;56.70;;;24.98;;
45039;SDS011;30778;53.574;7.770;2024-03-22T05:17:50;53.97;;;25.38;;
45039;SDS011;30778;53.574;7.770;2024-03-22T05:20:17;65.45;;;27.17;;
45039;SDS011;30778;53.574;7.770;2024-03-22T05:22:42;62.60;;;27.48;;
45039;SDS011;30778;53.574;7.770;2024-03-22T05:25:08;63.03;;;25.13;;
45039;SDS011;30778;53.574;7.770;2024-03-22T05:27:35;58.25;;;25.20;;
45039;SDS011;30778;53.574;7.770;2024-03-22T05:30:01;53.50;;;25.63;;
45039;SDS011;30778;53.574;7.770;2024-03-22T05:32:29;56.47;;;27.20;;
45039;SDS011;30778;53.574;7.770;2024-03-22T05:34:54;53.72;;;23.92;;
45039;SDS011;30778;53.574;7.770;2024-03-22T05:37:20;53.60;;;24.25;;
45039;SDS011;30778;53.574;7.770;2024-03-22T05:39:46;49.00;;;23.60;;
45039;SDS011;30778;53.574;7.770;2024-03-22T05:42:11;60.17;;;26.48;;
45039;SDS011;30778;53.574;7.770;2024-03-22T05:44:37;54.75;;;25.95;;
45039;SDS011;30778;53.574;7.770;2024-03-22T05:47:02;53.30;;;25.13;;
45039;SDS011;30778;53.574;7.770;2024-03-22T05:49:28;55.67;;;25.98;;
45039;SDS011;30778;53.574;7.770;2024-03-22T05:51:54;50.60;;;24.55;;
45039;SDS011;30778;53.574;7.770;2024-03-22T05:54:20;55.72;;;24.13;;
45039;SDS011;30778;53.574;7.770;2024-03-22T05:56:48;52.92;;;26.27;;
45039;SDS011;30778;53.574;7.770;2024-03-22T05:59:13;51.97;;;25.92;;
45039;SDS011;30778;53.574;7.770;2024-03-22T06:01:39;53.83;;;26.05;;
45039;SDS011;30778;53.574;7.770;2024-03-22T06:04:04;69.90;;;26.80;;
45039;SDS011;30778;53.574;7.770;2024-03-22T06:06:32;49.88;;;24.70;;
45039;SDS011;30778;53.574;7.770;2024-03-22T06:08:58;58.25;;;25.60;;
45039;SDS011;30778;53.574;7.770;2024-03-22T06:11:25;58.30;;;24.23;;
45039;SDS011;30778;53.574;7.770;2024-03-22T06:13:51;54.50;;;24.10;;
45039;SDS011;30778;53.574;7.770;2024-03-22T06:16:16;52.00;;;25.23;;
45039;SDS011;30778;53.574;7.770;2024-03-22T06:18:42;58.95;;;25.52;;
45039;SDS011;30778;53.574;7.770;2024-03-22T06:21:07;57.63;;;25.23;;
45039;SDS011;30778;53.574;7.770;2024-03-22T06:23:33;47.83;;;22.38;;
45039;SDS011;30778;53.574;7.770;2024-03-22T06:25:59;54.28;;;26.42;;
45039;SDS011;30778;53.574;7.770;2024-03-22T06:28:26;57.65;;;25.80;;
45039;SDS011;30778;53.574;7.770;2024-03-22T06:30:53;58.03;;;26.23;;
45039;SDS011;30778;53.574;7.770;2024-03-22T06:33:19;55.55;;;25.95;;
45039;SDS011;30778;53.574;7.770;2024-03-22T06:35:45;55.85;;;23.63;;
45039;SDS011;30778;53.574;7.770;2024-03-22T06:38:11;55.75;;;26.13;;
45039;SDS011;30778;53.574;7.770;2024-03-22T06:40:37;57.53;;;24.75;;
45039;SDS011;30778;53.574;7.770;2024-03-22T06:43:02;55.47;;;25.50;;
45039;SDS011;30778;53.574;7.770;2024-03-22T06:45:28;52.22;;;23.55;;
45039;SDS011;30778;53.574;7.770;2024-03-22T06:47:55;55.20;;;23.58;;
45039;SDS011;30778;53.574;7.770;2024-03-22T06:50:21;54.03;;;24.33;;
45039;SDS011;30778;53.574;7.770;2024-03-22T06:52:50;50.97;;;23.92;;
45039;SDS011;30778;53.574;7.770;2024-03-22T06:55:16;60.47;;;24.00;;
45039;SDS011;30778;53.574;7.770;2024-03-22T06:57:43;58.53;;;25.67;;
45039;SDS011;30778;53.574;7.770;2024-03-22T07:00:10;52.47;;;22.63;;
45039;SDS011;30778;53.574;7.770;2024-03-22T07:02:36;56.90;;;24.70;;
45039;SDS011;30778;53.574;7.770;2024-03-22T07:05:04;50.08;;;23.30;;
45039;SDS011;30778;53.574;7.770;2024-03-22T07:07:30;51.22;;;22.65;;
45039;SDS011;30778;53.574;7.770;2024-03-22T07:09:56;55.85;;;23.95;;
45039;SDS011;30778;53.574;7.770;2024-03-22T07:12:22;56.50;;;22.55;;
45039;SDS011;30778;53.574;7.770;2024-03-22T07:14:47;47.78;;;21.48;;
45039;SDS011;30778;53.574;7.770;2024-03-22T07:17:13;52.30;;;22.20;;
45039;SDS011;30778;53.574;7.770;2024-03-22T07:19:38;45.60;;;20.90;;
45039;SDS011;30778;53.574;7.770;2024-03-22T07:22:04;54.60;;;22.13;;
45039;SDS011;30778;53.574;7.770;2024-03-22T07:24:29;48.92;;;21.70;;
45039;SDS011;30778;53.574;7.770;2024-03-22T07:26:57;50.03;;;21.23;;
45039;SDS011;30778;53.574;7.770;2024-03-22T07:29:23;45.30;;;21.48;;
45039;SDS011;30778;53.574;7.770;2024-03-22T07:31:48;48.70;;;20.38;;
45039;SDS011;30778;53.574;7.770;2024-03-22T07:34:14;51.25;;;21.52;;
45039;SDS011;30778;53.574;7.770;2024-03-22T07:36:40;47.40;;;20.80;;
45039;SDS011;30778;53.574;7.770;2024-03-22T07:39:06;48.65;;;19.90;;
45039;SDS011;30778;53.574;7.770;2024-03-22T07:41:33;51.63;;;20.00;;
45039;SDS011;30778;53.574;7.770;2024-03-22T07:43:59;45.25;;;19.58;;
45039;SDS011;30778;53.574;7.770;2024-03-22T07:46:25;37.25;;;16.88;;
45039;SDS011;30778;53.574;7.770;2024-03-22T07:48:51;46.17;;;19.05;;
45039;SDS011;30778;53.574;7.770;2024-03-22T07:51:17;41.80;;;18.92;;
45039;SDS011;30778;53.574;7.770;2024-03-22T07:53:43;42.60;;;16.95;;
45039;SDS011;30778;53.574;7.770;2024-03-22T07:56:09;39.13;;;17.13;;
45039;SDS011;30778;53.574;7.770;2024-03-22T07:58:34;39.08;;;17.50;;
45039;SDS011;30778;53.574;7.770;2024-03-22T08:01:00;32.90;;;14.70;;
45039;SDS011;30778;53.574;7.770;2024-03-22T08:03:25;29.77;;;14.70;;
45039;SDS011;30778;53.574;7.770;2024-03-22T08:05:51;32.30;;;13.98;;
45039;SDS011;30778;53.574;7.770;2024-03-22T08:08:17;27.10;;;14.70;;
45039;SDS011;30778;53.574;7.770;2024-03-22T08:10:43;34.67;;;15.20;;
45039;SDS011;30778;53.574;7.770;2024-03-22T08:13:08;32.28;;;14.15;;
45039;SDS011;30778;53.574;7.770;2024-03-22T08:15:34;29.60;;;12.00;;
45039;SDS011;30778;53.574;7.770;2024-03-22T08:18:03;35.08;;;13.98;;
45039;SDS011;30778;53.574;7.770;2024-03-22T08:20:28;23.55;;;11.98;;
45039;SDS011;30778;53.574;7.770;2024-03-22T08:22:55;23.92;;;11.75;;
45039;SDS011;30778;53.574;7.770;2024-03-22T08:25:20;22.60;;;10.60;;
45039;SDS011;30778;53.574;7.770;2024-03-22T08:27:47;30.60;;;12.27;;
45039;SDS011;30778;53.574;7.770;2024-03-22T08:30:14;21.27;;;9.18;;
45039;SDS011;30778;53.574;7.770;2024-03-22T08:32:40;17.27;;;9.77;;
45039;SDS011;30778;53.574;7.770;2024-03-22T08:35:05;21.83;;;9.63;;
45039;SDS011;30778;53.574;7.770;2024-03-22T08:37:32;19.67;;;9.15;;
45039;SDS011;30778;53.574;7.770;2024-03-22T08:39:58;19.35;;;8.48;;
45039;SDS011;30778;53.574;7.770;2024-03-22T08:42:24;14.95;;;7.63;;
45039;SDS011;30778;53.574;7.770;2024-03-22T08:44:49;14.85;;;8.20;;
45039;SDS011;30778;53.574;7.770;2024-03-22T08:47:15;16.98;;;6.93;;
45039;SDS011;30778;53.574;7.770;2024-03-22T08:49:40;15.82;;;8.02;;
45039;SDS011;30778;53.574;7.770;2024-03-22T08:52:08;16.92;;;7.70;;
45039;SDS011;30778;53.574;7.770;2024-03-22T08:54:34;13.20;;;6.75;;
45039;SDS011;30778;53.574;7.770;2024-03-22T08:57:00;15.77;;;8.43;;
45039;SDS011;30778;53.574;7.770;2024-03-22T08:59:25;12.07;;;6.65;;
45039;SDS011;30778;53.574;7.770;2024-03-22T09:01:51;14.32;;;6.60;;
45039;SDS011;30778;53.574;7.770;2024-03-22T09:04:17;13.10;;;6.45;;
45039;SDS011;30778;53.574;7.770;2024-03-22T09:06:42;12.68;;;6.63;;
45039;SDS011;30778;53.574;7.770;2024-03-22T09:09:07;11.57;;;6.78;;
45039;SDS011;30778;53.574;7.770;2024-03-22T09:11:34;10.13;;;5.50;;
45039;SDS011;30778;53.574;7.770;2024-03-22T09:13:59;8.98;;;4.65;;
45039;SDS011;30778;53.574;7.770;2024-03-22T09:16:25;13.02;;;6.45;;
45039;SDS011;30778;53.574;7.770;2024-03-22T09:18:50;6.90;;;4.22;;
45039;SDS011;30778;53.574;7.770;2024-03-22T09:21:16;7.53;;;4.50;;
45039;SDS011;30778;53.574;7.770;2024-03-22T09:23:41;6.10;;;3.58;;
45039;SDS011;30778;53.574;7.770;2024-03-22T09:26:07;5.53;;;3.17;;
45039;SDS011;30778;53.574;7.770;2024-03-22T09:28:32;8.32;;;2.95;;
45039;SDS011;30778;53.574;7.770;2024-03-22T09:30:58;7.63;;;2.72;;
45039;SDS011;30778;53.574;7.770;2024-03-22T09:33:27;4.78;;;2.38;;
45039;SDS011;30778;53.574;7.770;2024-03-22T09:35:53;4.68;;;2.47;;
45039;SDS011;30778;53.574;7.770;2024-03-22T09:38:19;6.10;;;2.35;;
45039;SDS011;30778;53.574;7.770;2024-03-22T09:40:44;4.50;;;2.17;;
45039;SDS011;30778;53.574;7.770;2024-03-22T09:43:11;4.13;;;2.25;;
45039;SDS011;30778;53.574;7.770;2024-03-22T09:45:44;4.40;;;2.35;;
45039;SDS011;30778;53.574;7.770;2024-03-22T09:48:10;6.45;;;2.05;;
45039;SDS011;30778;53.574;7.770;2024-03-22T09:50:35;4.57;;;2.42;;
45039;SDS011;30778;53.574;7.770;2024-03-22T09:53:02;3.17;;;1.77;;
45039;SDS011;30778;53.574;7.770;2024-03-22T09:55:29;6.00;;;1.80;;
45039;SDS011;30778;53.574;7.770;2024-03-22T09:57:55;4.00;;;2.63;;
45039;SDS011;30778;53.574;7.770;2024-03-22T10:00:22;3.15;;;1.65;;
45039;SDS011;30778;53.574;7.770;2024-03-22T10:02:50;2.95;;;1.48;;
45039;SDS011;30778;53.574;7.770;2024-03-22T10:05:15;2.47;;;1.58;;
45039;SDS011;30778;53.574;7.770;2024-03-22T10:07:43;2.80;;;1.30;;
45039;SDS011;30778;53.574;7.770;2024-03-22T10:10:09;3.35;;;2.17;;
45039;SDS011;30778;53.574;7.770;2024-03-22T10:12:35;4.63;;;2.20;;
45039;SDS011;30778;53.574;7.770;2024-03-22T10:15:02;3.08;;;1.80;;
45039;SDS011;30778;53.574;7.770;2024-03-22T10:17:28;3.28;;;2.00;;
45039;SDS011;30778;53.574;7.770;2024-03-22T10:19:54;2.53;;;1.52;;
45039;SDS011;30778;53.574;7.770;2024-03-22T10:22:20;4.53;;;2.08;;
45039;SDS011;30778;53.574;7.770;2024-03-22T10:24:45;4.40;;;1.10;;
45039;SDS011;30778;53.574;7.770;2024-03-22T10:27:11;3.60;;;1.40;;
45039;SDS011;30778;53.574;7.770;2024-03-22T10:29:36;2.22;;;1.33;;
45039;SDS011;30778;53.574;7.770;2024-03-22T10:32:02;4.63;;;1.80;;
45039;SDS011;30778;53.574;7.770;2024-03-22T10:34:28;5.05;;;1.83;;
45039;SDS011;30778;53.574;7.770;2024-03-22T10:36:56;5.43;;;1.55;;
45039;SDS011;30778;53.574;7.770;2024-03-22T10:39:28;1.83;;;0.90;;
45039;SDS011;30778;53.574;7.770;2024-03-22T10:41:55;3.67;;;1.55;;
45039;SDS011;30778;53.574;7.770;2024-03-22T10:44:21;2.03;;;1.08;;
45039;SDS011;30778;53.574;7.770;2024-03-22T10:46:49;4.47;;;1.10;;
45039;SDS011;30778;53.574;7.770;2024-03-22T10:49:18;1.85;;;0.95;;
45039;SDS011;30778;53.574;7.770;2024-03-22T10:51:49;5.40;;;0.98;;
45039;SDS011;30778;53.574;7.770;2024-03-22T10:54:20;1.85;;;1.60;;
45039;SDS011;30778;53.574;7.770;2024-03-22T10:56:52;1.38;;;0.80;;
45039;SDS011;30778;53.574;7.770;2024-03-22T10:59:19;1.88;;;0.88;;
45039;SDS011;30778;53.574;7.770;2024-03-22T11:01:45;3.42;;;0.82;;
45039;SDS011;30778;53.574;7.770;2024-03-22T11:04:11;1.35;;;0.75;;
45039;SDS011;30778;53.574;7.770;2024-03-22T11:06:37;1.65;;;1.17;;
45039;SDS011;30778;53.574;7.770;2024-03-22T11:09:03;2.08;;;0.50;;
45039;SDS011;30778;53.574;7.770;2024-03-22T11:11:31;2.35;;;0.90;;
45039;SDS011;30778;53.574;7.770;2024-03-22T11:14:02;1.98;;;0.57;;
45039;SDS011;30778;53.574;7.770;2024-03-22T11:16:30;2.17;;;0.50;;
45039;SDS011;30778;53.574;7.770;2024-03-22T11:18:56;1.95;;;0.50;;
45039;SDS011;30778;53.574;7.770;2024-03-22T11:21:21;2.10;;;0.77;;
45039;SDS011;30778;53.574;7.770;2024-03-22T11:23:47;1.88;;;0.98;;
45039;SDS011;30778;53.574;7.770;2024-03-22T11:26:12;2.42;;;0.73;;
45039;SDS011;30778;53.574;7.770;2024-03-22T11:28:41;4.10;;;1.00;;
45039;SDS011;30778;53.574;7.770;2024-03-22T11:31:08;2.08;;;0.80;;
45039;SDS011;30778;53.574;7.770;2024-03-22T11:33:33;2.42;;;0.68;;
45039;SDS011;30778;53.574;7.770;2024-03-22T11:35:59;4.65;;;1.00;;
45039;SDS011;30778;53.574;7.770;2024-03-22T11:38:26;2.88;;;0.88;;
45039;SDS011;30778;53.574;7.770;2024-03-22T11:40:55;3.38;;;1.13;;
45039;SDS011;30778;53.574;7.770;2024-03-22T11:43:23;4.05;;;1.10;;
45039;SDS011;30778;53.574;7.770;2024-03-22T11:45:48;2.67;;;1.08;;
45039;SDS011;30778;53.574;7.770;2024-03-22T11:48:14;1.30;;;0.65;;
45039;SDS011;30778;53.574;7.770;2024-03-22T11:50:39;1.85;;;0.57;;
45039;SDS011;30778;53.574;7.770;2024-03-22T11:53:05;2.80;;;1.15;;
45039;SDS011;30778;53.574;7.770;2024-03-22T11:55:31;3.25;;;0.95;;
45039;SDS011;30778;53.574;7.770;2024-03-22T11:57:57;6.45;;;1.10;;
45039;SDS011;30778;53.574;7.770;2024-03-22T12:00:23;3.55;;;0.85;;
45039;SDS011;30778;53.574;7.770;2024-03-22T12:02:50;3.13;;;0.77;;
45039;SDS011;30778;53.574;7.770;2024-03-22T12:05:17;5.72;;;1.55;;
45039;SDS011;30778;53.574;7.770;2024-03-22T12:07:43;6.53;;;0.93;;
45039;SDS011;30778;53.574;7.770;2024-03-22T12:10:09;10.75;;;1.13;;
45039;SDS011;30778;53.574;7.770;2024-03-22T12:12:35;10.23;;;1.50;;
45039;SDS011;30778;53.574;7.770;2024-03-22T12:15:01;9.30;;;1.58;;
45039;SDS011;30778;53.574;7.770;2024-03-22T12:17:27;9.40;;;1.70;;
45039;SDS011;30778;53.574;7.770;2024-03-22T12:19:53;5.30;;;1.17;;
45039;SDS011;30778;53.574;7.770;2024-03-22T12:22:18;7.00;;;1.27;;
45039;SDS011;30778;53.574;7.770;2024-03-22T12:24:44;9.00;;;1.20;;
45039;SDS011;30778;53.574;7.770;2024-03-22T12:27:11;9.32;;;1.70;;
45039;SDS011;30778;53.574;7.770;2024-03-22T12:29:36;13.07;;;1.05;;
45039;SDS011;30778;53.574;7.770;2024-03-22T12:32:02;10.43;;;1.95;;
45039;SDS011;30778;53.574;7.770;2024-03-22T12:34:29;11.23;;;1.15;;
45039;SDS011;30778;53.574;7.770;2024-03-22T12:36:55;13.70;;;1.92;;
45039;SDS011;30778;53.574;7.770;2024-03-22T12:39:21;9.75;;;2.40;;
45039;SDS011;30778;53.574;7.770;2024-03-22T12:41:47;12.75;;;1.30;;
45039;SDS011;30778;53.574;7.770;2024-03-22T12:44:13;8.40;;;1.05;;
45039;SDS011;30778;53.574;7.770;2024-03-22T12:46:38;14.05;;;2.20;;
45039;SDS011;30778;53.574;7.770;2024-03-22T12:49:06;19.42;;;1.70;;
45039;SDS011;30778;53.574;7.770;2024-03-22T12:51:32;10.65;;;0.98;;
45039;SDS011;30778;53.574;7.770;2024-03-22T12:53:59;10.77;;;1.38;;
45039;SDS011;30778;53.574;7.770;2024-03-22T12:56:25;6.25;;;0.70;;
45039;SDS011;30778;53.574;7.770;2024-03-22T12:58:50;6.97;;;1.05;;
45039;SDS011;30778;53.574;7.770;2024-03-22T13:01:16;12.43;;;0.98;;
45039;SDS011;30778;53.574;7.770;2024-03-22T13:03:41;9.60;;;2.38;;
45039;SDS011;30778;53.574;7.770;2024-03-22T13:06:07;6.63;;;0.82;;
45039;SDS011;30778;53.574;7.770;2024-03-22T13:08:32;13.05;;;1.00;;
45039;SDS011;30778;53.574;7.770;2024-03-22T13:10:58;10.68;;;1.40;;
45039;SDS011;30778;53.574;7.770;2024-03-22T13:13:23;10.50;;;1.73;;
45039;SDS011;30778;53.574;7.770;2024-03-22T13:15:49;3.45;;;0.60;;
45039;SDS011;30778;53.574;7.770;2024-03-22T13:18:14;10.85;;;2.38;;
45039;SDS011;30778;53.574;7.770;2024-03-22T13:20:40;6.50;;;1.35;;
45039;SDS011;30778;53.574;7.770;2024-03-22T13:23:06;5.55;;;1.40;;
45039;SDS011;30778;53.574;7.770;2024-03-22T13:25:34;18.63;;;1.38;;
45039;SDS011;30778;53.574;7.770;2024-03-22T13:28:01;16.08;;;1.90;;
45039;SDS011;30778;53.574;7.770;2024-03-22T13:30:32;10.93;;;2.37;;
45039;SDS011;30778;53.574;7.770;2024-03-22T13:33:00;7.43;;;1.70;;
45039;SDS011;30778;53.574;7.770;2024-03-22T13:35:26;7.40;;;1.33;;
45039;SDS011;30778;53.574;7.770;2024-03-22T13:37:51;7.78;;;1.40;;
45039;SDS011;30778;53.574;7.770;2024-03-22T13:40:17;12.45;;;1.30;;
45039;SDS011;30778;53.574;7.770;2024-03-22T13:42:42;15.23;;;1.45;;
45039;SDS011;30778;53.574;7.770;2024-03-22T13:45:08;9.32;;;1.38;;
45039;SDS011;30778;53.574;7.770;2024-03-22T13:47:33;6.28;;;1.92;;
45039;SDS011;30778;53.574;7.770;2024-03-22T13:50:00;11.27;;;1.88;;
45039;SDS011;30778;53.574;7.770;2024-03-22T13:52:27;9.90;;;1.90;;
45039;SDS011;30778;53.574;7.770;2024-03-22T13:54:52;9.13;;;1.35;;
45039;SDS011;30778;53.574;7.770;2024-03-22T13:57:18;13.50;;;1.52;;
45039;SDS011;30778;53.574;7.770;2024-03-22T13:59:44;15.00;;;2.83;;
45039;SDS011;30778;53.574;7.770;2024-03-22T14:02:09;12.82;;;2.13;;
45039;SDS011;30778;53.574;7.770;2024-03-22T14:04:35;14.07;;;4.13;;
45039;SDS011;30778;53.574;7.770;2024-03-22T14:07:01;9.05;;;2.70;;
45039;SDS011;30778;53.574;7.770;2024-03-22T14:09:33;13.13;;;3.03;;
45039;SDS011;30778;53.574;7.770;2024-03-22T14:11:59;18.38;;;4.07;;
45039;SDS011;30778;53.574;7.770;2024-03-22T14:14:25;11.57;;;2.50;;
45039;SDS011;30778;53.574;7.770;2024-03-22T14:16:51;13.48;;;2.65;;
45039;SDS011;30778;53.574;7.770;2024-03-22T14:19:18;12.50;;;2.70;;
45039;SDS011;30778;53.574;7.770;2024-03-22T14:21:44;8.13;;;2.63;;
45039;SDS011;30778;53.574;7.770;2024-03-22T14:24:11;10.25;;;3.00;;